Time;durP1;ratioP1;P1;durP2;ratioP2;P2;SDS_P1;SDS_P2;PMS_P1;PMS_P2;Temp;Humidity;BMP_temperature;BMP_pressure;BME280_temperature;BME280_humidity;BME280_pressure;Samples;Min_cycle;Max_cycle;Signal;HPM_P1;HPM_P2
2021/10/11 00:00:38;;;;;;;18.50;11.57;;;6.90;1.00;;;;;;5097366;28;20317;-53
2021/10/11 00:03:03;;;;;;;14.50;11.50;;;6.90;1.00;;;;;;5105629;28;20178;-54
2021/10/11 00:05:29;;;;;;;14.70;11.50;;;6.80;1.00;;;;;;5108747;28;20882;-55
2021/10/11 00:07:54;;;;;;;14.43;11.57;;;6.80;1.00;;;;;;5092827;28;20189;-54
2021/10/11 00:10:20;;;;;;;14.73;10.80;;;6.70;1.00;;;;;;5107638;28;20194;-54
2021/10/11 00:12:48;;;;;;;16.37;11.70;;;6.70;1.00;;;;;;5109458;28;20202;-54
2021/10/11 00:15:14;;;;;;;17.40;12.00;;;6.70;1.00;;;;;;5107189;28;20247;-54
2021/10/11 00:17:40;;;;;;;17.17;12.13;;;6.70;1.00;;;;;;5106658;28;20455;-56
2021/10/11 00:20:06;;;;;;;16.57;11.23;;;6.60;1.00;;;;;;5104679;28;20476;-54
2021/10/11 00:22:31;;;;;;;19.30;10.83;;;6.60;1.00;;;;;;5108037;28;20305;-54
2021/10/11 00:24:57;;;;;;;14.57;10.90;;;6.60;1.00;;;;;;5106061;28;20440;-54
2021/10/11 00:27:22;;;;;;;17.23;10.90;;;6.50;1.00;;;;;;5100328;28;20716;-55
2021/10/11 00:29:48;;;;;;;17.00;11.33;;;6.60;1.00;;;;;;5108220;28;20234;-54
2021/10/11 00:32:13;;;;;;;18.93;11.13;;;6.60;1.00;;;;;;5108894;28;20253;-55
2021/10/11 00:34:39;;;;;;;17.30;11.70;;;6.60;1.00;;;;;;5104324;28;20190;-55
2021/10/11 00:37:05;;;;;;;15.93;10.20;;;6.60;1.00;;;;;;5102971;28;20655;-54
2021/10/11 00:39:32;;;;;;;14.80;12.53;;;6.60;1.00;;;;;;5109189;28;20259;-54
2021/10/11 00:41:57;;;;;;;20.60;12.23;;;6.60;1.00;;;;;;5102810;28;20480;-54
2021/10/11 00:44:23;;;;;;;17.93;11.70;;;6.60;1.00;;;;;;5104221;28;20520;-54
2021/10/11 00:46:49;;;;;;;15.60;12.53;;;6.60;1.00;;;;;;5104102;28;20444;-55
2021/10/11 00:49:14;;;;;;;15.60;11.47;;;6.50;1.00;;;;;;5106395;28;20202;-55
2021/10/11 00:51:40;;;;;;;14.80;11.50;;;6.50;1.00;;;;;;5103628;28;20683;-54
2021/10/11 00:54:06;;;;;;;16.90;12.80;;;6.50;1.00;;;;;;5107748;28;20244;-54
2021/10/11 00:56:32;;;;;;;17.27;11.87;;;6.40;1.00;;;;;;5105774;28;20182;-54
2021/10/11 00:58:57;;;;;;;18.37;12.20;;;6.30;1.00;;;;;;5105670;28;20534;-54
2021/10/11 01:01:23;;;;;;;16.00;11.77;;;6.30;1.00;;;;;;5100806;28;20188;-53
2021/10/11 01:03:50;;;;;;;17.70;11.73;;;6.30;1.00;;;;;;5109027;28;20191;-55
2021/10/11 01:06:16;;;;;;;17.27;12.40;;;6.30;1.00;;;;;;5107753;28;20189;-54
2021/10/11 01:08:42;;;;;;;16.90;12.10;;;6.30;1.00;;;;;;5107013;28;20530;-55
2021/10/11 01:11:07;;;;;;;17.93;12.13;;;6.20;1.00;;;;;;5104399;28;20506;-54
2021/10/11 01:13:33;;;;;;;18.30;13.00;;;6.30;1.00;;;;;;5100512;28;20946;-54
2021/10/11 01:15:58;;;;;;;17.20;12.50;;;6.30;1.00;;;;;;5100893;27;20216;-54
2021/10/11 01:18:24;;;;;;;15.80;11.33;;;6.20;1.00;;;;;;5100614;28;20282;-54
2021/10/11 01:20:52;;;;;;;15.97;11.53;;;6.20;1.00;;;;;;5102727;28;20211;-54
2021/10/11 01:23:18;;;;;;;14.73;11.40;;;6.10;1.00;;;;;;5106382;28;20218;-54
2021/10/11 01:25:44;;;;;;;15.47;11.07;;;6.10;1.00;;;;;;5107233;28;20468;-55
2021/10/11 01:28:09;;;;;;;17.20;11.03;;;6.10;1.00;;;;;;5107528;28;20184;-54
2021/10/11 01:30:35;;;;;;;23.70;12.40;;;6.10;1.00;;;;;;5106206;28;20670;-55
2021/10/11 01:33:01;;;;;;;15.93;11.30;;;6.10;1.00;;;;;;5102585;28;20807;-54
2021/10/11 01:35:27;;;;;;;16.93;12.43;;;6.10;1.00;;;;;;5105981;28;20618;-55
2021/10/11 01:37:53;;;;;;;15.83;11.47;;;6.10;1.00;;;;;;5104270;28;20868;-54
2021/10/11 01:40:20;;;;;;;19.40;12.77;;;6.20;1.00;;;;;;5104572;28;20850;-53
2021/10/11 01:42:46;;;;;;;19.20;13.77;;;6.10;1.00;;;;;;5107789;28;20273;-55
2021/10/11 01:45:13;;;;;;;17.27;11.83;;;6.00;1.00;;;;;;5108689;28;20515;-55
2021/10/11 01:47:39;;;;;;;17.73;12.30;;;5.90;1.00;;;;;;5105678;28;20440;-56
2021/10/11 01:50:06;;;;;;;17.90;12.03;;;5.90;1.00;;;;;;5102810;28;20452;-54
2021/10/11 01:52:32;;;;;;;16.23;12.60;;;5.90;1.00;;;;;;5102793;28;20572;-54
2021/10/11 01:54:57;;;;;;;16.23;14.33;;;6.00;1.00;;;;;;5105456;28;20451;-55
2021/10/11 01:57:23;;;;;;;17.90;12.90;;;6.00;1.00;;;;;;5100732;28;20251;-54
2021/10/11 01:59:48;;;;;;;18.27;13.00;;;6.10;1.00;;;;;;5103097;28;20601;-54
2021/10/11 02:02:14;;;;;;;15.77;12.70;;;6.00;1.00;;;;;;5104713;28;20654;-55
2021/10/11 02:04:40;;;;;;;17.07;13.17;;;6.00;1.00;;;;;;5103317;28;20183;-54
2021/10/11 02:07:05;;;;;;;20.37;12.90;;;5.90;1.00;;;;;;5096789;28;20501;-55
2021/10/11 02:09:31;;;;;;;19.50;12.63;;;5.90;1.00;;;;;;5104400;28;20194;-54
2021/10/11 02:11:56;;;;;;;17.97;13.37;;;5.80;1.00;;;;;;5088548;28;20193;-55
2021/10/11 02:14:22;;;;;;;19.30;13.10;;;5.80;1.00;;;;;;5104328;28;20263;-54
2021/10/11 02:16:48;;;;;;;18.47;12.60;;;5.90;1.00;;;;;;5100891;28;20556;-54
2021/10/11 02:19:14;;;;;;;17.37;13.03;;;5.80;1.00;;;;;;5100294;28;20238;-54
2021/10/11 02:21:39;;;;;;;15.43;11.30;;;5.80;1.00;;;;;;5105597;28;20667;-55
2021/10/11 02:24:05;;;;;;;19.13;12.17;;;5.80;1.00;;;;;;5107746;28;20451;-54
2021/10/11 02:26:31;;;;;;;20.23;13.27;;;5.80;1.00;;;;;;5104670;28;20277;-55
2021/10/11 02:28:57;;;;;;;15.00;11.60;;;5.90;1.00;;;;;;5109238;28;20212;-55
2021/10/11 02:31:22;;;;;;;18.77;12.37;;;5.80;1.00;;;;;;5101877;28;20429;-54
2021/10/11 02:33:49;;;;;;;23.37;12.90;;;5.40;1.00;;;;;;5107708;28;20448;-54
2021/10/11 02:36:15;;;;;;;14.63;11.63;;;5.70;1.00;;;;;;5101072;28;20186;-54
2021/10/11 02:38:40;;;;;;;15.80;11.57;;;5.80;1.00;;;;;;5108566;28;20440;-56
2021/10/11 02:41:06;;;;;;;16.33;12.80;;;5.80;1.00;;;;;;5104876;28;20179;-54
2021/10/11 02:43:31;;;;;;;17.47;13.37;;;5.80;1.00;;;;;;5108869;28;20225;-54
2021/10/11 02:45:58;;;;;;;16.90;11.60;;;5.80;1.00;;;;;;5106638;28;20174;-55
2021/10/11 02:48:23;;;;;;;17.53;11.30;;;5.70;1.00;;;;;;5102721;28;20194;-54
2021/10/11 02:50:49;;;;;;;15.97;11.60;;;5.70;1.00;;;;;;5092155;28;20440;-53
2021/10/11 02:53:15;;;;;;;19.13;12.20;;;5.70;1.00;;;;;;5106570;28;20453;-54
2021/10/11 02:55:41;;;;;;;15.80;11.40;;;5.60;1.00;;;;;;5101142;28;20529;-55
2021/10/11 02:58:07;;;;;;;17.33;11.93;;;5.60;1.00;;;;;;5106664;28;20186;-54
2021/10/11 03:00:33;;;;;;;18.67;12.60;;;5.60;1.00;;;;;;5102974;28;20480;-54
2021/10/11 03:02:58;;;;;;;16.77;12.47;;;5.60;1.00;;;;;;5107033;28;20191;-54
2021/10/11 03:05:24;;;;;;;16.13;12.80;;;5.60;1.00;;;;;;5102770;28;20693;-53
2021/10/11 03:07:50;;;;;;;15.07;12.93;;;5.60;1.00;;;;;;5107405;27;20548;-55
2021/10/11 03:10:15;;;;;;;20.80;12.43;;;5.60;1.00;;;;;;5101494;28;20281;-53
2021/10/11 03:12:41;;;;;;;19.60;13.60;;;5.60;1.00;;;;;;5105326;28;20653;-55
2021/10/11 03:15:07;;;;;;;18.50;13.47;;;5.60;1.00;;;;;;5105969;28;20199;-55
2021/10/11 03:17:33;;;;;;;19.63;14.33;;;5.60;1.00;;;;;;5107243;28;20744;-55
2021/10/11 03:19:59;;;;;;;17.47;13.17;;;5.60;1.00;;;;;;5109058;28;20459;-54
2021/10/11 03:22:24;;;;;;;17.40;12.50;;;5.60;1.00;;;;;;5088784;28;20968;-54
2021/10/11 03:24:50;;;;;;;19.83;13.40;;;5.50;1.00;;;;;;5105630;28;20202;-56
2021/10/11 03:27:16;;;;;;;20.67;13.70;;;5.50;1.00;;;;;;5105795;28;20210;-55
2021/10/11 03:29:41;;;;;;;19.90;13.67;;;6.40;1.00;;;;;;5107913;28;20200;-54
2021/10/11 03:32:07;;;;;;;19.47;13.40;;;5.20;1.00;;;;;;5104807;28;20182;-54
2021/10/11 03:34:33;;;;;;;24.07;13.60;;;5.40;1.00;;;;;;5106089;28;20182;-56
2021/10/11 03:36:58;;;;;;;22.53;12.70;;;5.50;1.00;;;;;;5094098;28;20684;-55
2021/10/11 03:39:24;;;;;;;21.07;14.17;;;5.50;1.00;;;;;;5094834;28;20508;-55
2021/10/11 03:41:49;;;;;;;23.10;13.40;;;5.50;1.00;;;;;;5095328;28;20179;-54
2021/10/11 03:44:18;;;;;;;20.40;12.40;;;5.50;1.00;;;;;;5101607;28;20213;-54
2021/10/11 03:46:43;;;;;;;18.50;13.73;;;5.50;1.00;;;;;;5109308;28;20186;-54
2021/10/11 03:49:09;;;;;;;18.80;13.27;;;5.50;1.00;;;;;;5106388;28;20454;-54
2021/10/11 03:51:34;;;;;;;19.70;13.30;;;5.40;1.00;;;;;;5094216;28;20226;-54
2021/10/11 03:54:00;;;;;;;17.93;14.57;;;5.40;1.00;;;;;;5105850;28;20588;-54
2021/10/11 03:56:26;;;;;;;18.13;13.60;;;5.50;1.00;;;;;;5102125;28;20191;-54
2021/10/11 03:58:51;;;;;;;19.23;14.80;;;5.50;1.00;;;;;;5100469;28;20202;-54
2021/10/11 04:01:17;;;;;;;18.93;13.90;;;5.50;1.00;;;;;;5102956;28;20249;-54
2021/10/11 04:03:44;;;;;;;17.70;12.80;;;5.40;1.00;;;;;;5108213;28;20648;-54
2021/10/11 04:06:10;;;;;;;17.73;12.80;;;5.50;1.00;;;;;;5101782;28;20447;-53
2021/10/11 04:08:41;;;;;;;22.13;15.27;;;5.60;1.00;;;;;;5103358;28;20882;-53
2021/10/11 04:11:11;;;;;;;22.10;13.20;;;5.50;1.00;;;;;;5104806;28;20440;-54
2021/10/11 04:13:38;;;;;;;16.73;12.20;;;5.60;1.00;;;;;;5103351;28;20447;-54
2021/10/11 04:16:05;;;;;;;19.00;13.07;;;5.50;1.00;;;;;;5096635;28;20838;-54
2021/10/11 04:18:31;;;;;;;19.50;13.30;;;5.50;1.00;;;;;;5102693;28;21055;-53
2021/10/11 04:20:56;;;;;;;16.53;13.17;;;5.60;1.00;;;;;;5104099;28;20467;-54
2021/10/11 04:23:22;;;;;;;20.30;14.23;;;5.50;1.00;;;;;;5102735;28;20231;-53
2021/10/11 04:25:47;;;;;;;19.00;14.90;;;5.60;1.00;;;;;;5104190;28;20548;-54
2021/10/11 04:28:15;;;;;;;20.93;14.27;;;5.60;1.00;;;;;;5106844;28;20190;-55
2021/10/11 04:30:41;;;;;;;19.80;14.63;;;5.60;1.00;;;;;;5088985;28;20200;-55
2021/10/11 04:33:08;;;;;;;18.37;14.93;;;5.50;1.00;;;;;;5104879;28;20437;-55
2021/10/11 04:35:33;;;;;;;18.07;13.43;;;5.50;1.00;;;;;;5100767;27;20436;-54
2021/10/11 04:37:59;;;;;;;20.40;13.60;;;5.40;1.00;;;;;;5104278;28;20442;-55
2021/10/11 04:40:25;;;;;;;18.10;14.17;;;5.50;1.00;;;;;;5099571;28;20321;-56
2021/10/11 04:42:50;;;;;;;19.13;14.27;;;5.50;1.00;;;;;;5103456;28;20175;-54
2021/10/11 04:45:16;;;;;;;20.83;15.60;;;5.50;1.00;;;;;;5107914;28;20181;-55
2021/10/11 04:47:42;;;;;;;18.90;14.50;;;5.50;1.00;;;;;;5105932;28;20253;-53
2021/10/11 04:50:07;;;;;;;19.57;14.90;;;5.50;1.00;;;;;;5106713;28;20535;-54
2021/10/11 04:52:33;;;;;;;19.23;14.00;;;5.50;1.00;;;;;;5106665;28;20345;-53
2021/10/11 04:54:59;;;;;;;19.37;14.33;;;5.50;1.00;;;;;;5106238;28;20198;-53
2021/10/11 04:57:24;;;;;;;21.33;14.03;;;5.50;1.00;;;;;;5103670;28;20186;-55
2021/10/11 04:59:50;;;;;;;19.13;14.20;;;5.60;1.00;;;;;;5107643;28;20234;-52
2021/10/11 05:02:16;;;;;;;21.17;14.20;;;5.50;1.00;;;;;;5103376;28;20213;-54
2021/10/11 05:04:42;;;;;;;19.80;13.90;;;5.50;1.00;;;;;;5107116;28;20189;-55
2021/10/11 05:07:08;;;;;;;21.10;14.50;;;5.50;1.00;;;;;;5108204;28;20605;-54
2021/10/11 05:09:33;;;;;;;19.90;13.97;;;5.50;1.00;;;;;;5100361;28;20547;-54
2021/10/11 05:11:59;;;;;;;19.70;13.70;;;5.60;1.00;;;;;;5100831;28;20185;-54
2021/10/11 05:14:24;;;;;;;19.60;13.80;;;5.60;1.00;;;;;;5102924;28;20194;-56
2021/10/11 05:16:50;;;;;;;19.30;14.17;;;5.60;1.00;;;;;;5104109;28;20199;-52
2021/10/11 05:19:23;;;;;;;22.03;14.40;;;5.70;1.00;;;;;;5100037;28;20206;-55
2021/10/11 05:21:49;;;;;;;21.73;14.90;;;5.80;1.00;;;;;;5100145;28;20189;-54
2021/10/11 05:24:16;;;;;;;20.80;13.93;;;5.80;1.00;;;;;;5097833;28;20436;-54
2021/10/11 05:26:41;;;;;;;17.77;14.00;;;5.80;1.00;;;;;;5103556;28;20211;-55
2021/10/11 05:29:07;;;;;;;17.80;13.83;;;5.80;1.00;;;;;;5095451;28;20455;-57
2021/10/11 05:31:33;;;;;;;18.30;13.97;;;5.90;1.00;;;;;;5101770;28;20189;-54
2021/10/11 05:33:59;;;;;;;23.77;14.70;;;5.90;1.00;;;;;;5102393;28;20228;-54
2021/10/11 05:36:25;;;;;;;20.40;15.53;;;5.90;1.00;;;;;;5107697;28;20183;-54
2021/10/11 05:38:51;;;;;;;18.43;13.90;;;6.00;1.00;;;;;;5098797;28;20456;-55
2021/10/11 05:41:16;;;;;;;18.90;13.30;;;6.00;1.00;;;;;;5102006;28;20269;-55
2021/10/11 05:43:42;;;;;;;17.87;13.30;;;6.10;1.00;;;;;;5106688;28;20535;-55
2021/10/11 05:46:07;;;;;;;18.73;13.80;;;6.10;1.00;;;;;;5103731;28;20583;-54
2021/10/11 05:48:33;;;;;;;20.20;14.57;;;6.10;1.00;;;;;;5104935;28;20185;-54
2021/10/11 05:50:58;;;;;;;20.03;15.33;;;6.30;1.00;;;;;;5100574;28;20326;-54
2021/10/11 05:53:24;;;;;;;19.57;14.20;;;6.30;1.00;;;;;;5105670;28;20240;-54
2021/10/11 05:55:49;;;;;;;16.43;13.60;;;6.30;1.00;;;;;;5105664;28;20187;-55
2021/10/11 05:58:15;;;;;;;20.70;15.40;;;6.40;1.00;;;;;;5106759;28;20190;-55
2021/10/11 06:00:41;;;;;;;19.53;14.73;;;6.40;1.00;;;;;;5083581;28;20210;-55
2021/10/11 06:03:06;;;;;;;20.07;14.43;;;6.40;1.00;;;;;;5102919;28;20544;-56
2021/10/11 06:05:32;;;;;;;17.97;13.87;;;6.50;1.00;;;;;;5107425;28;20255;-55
2021/10/11 06:07:57;;;;;;;21.67;13.90;;;6.50;1.00;;;;;;5104776;28;20218;-55
2021/10/11 06:10:23;;;;;;;19.10;14.40;;;6.50;1.00;;;;;;5098724;28;20212;-54
2021/10/11 06:12:48;;;;;;;23.63;13.60;;;6.60;1.00;;;;;;5098079;28;20190;-56
2021/10/11 06:15:14;;;;;;;19.30;13.07;;;6.60;1.00;;;;;;5100213;28;20201;-54
2021/10/11 06:17:39;;;;;;;17.73;13.80;;;6.60;1.00;;;;;;5101958;28;20215;-54
2021/10/11 06:20:05;;;;;;;21.13;14.60;;;6.70;1.00;;;;;;5105598;27;20216;-57
2021/10/11 06:22:31;;;;;;;24.73;14.83;;;6.70;1.00;;;;;;5105341;28;20261;-55
2021/10/11 06:24:57;;;;;;;16.43;12.70;;;6.80;1.00;;;;;;5106125;28;21205;-53
2021/10/11 06:27:22;;;;;;;18.27;14.20;;;6.90;1.00;;;;;;5111592;28;20175;-54
2021/10/11 06:29:48;;;;;;;21.93;13.30;;;6.90;1.00;;;;;;5104351;28;20537;-54
2021/10/11 06:32:13;;;;;;;20.30;13.80;;;6.90;1.00;;;;;;5105417;28;20194;-55
2021/10/11 06:34:39;;;;;;;19.77;13.00;;;7.00;1.00;;;;;;5108455;28;20187;-52
2021/10/11 06:37:05;;;;;;;18.80;13.50;;;7.10;1.00;;;;;;5107809;28;20655;-57
2021/10/11 06:39:31;;;;;;;19.53;13.83;;;7.10;1.00;;;;;;5105798;28;20495;-53
2021/10/11 06:41:56;;;;;;;16.77;12.83;;;7.10;1.00;;;;;;5108410;28;20174;-53
2021/10/11 06:44:22;;;;;;;19.23;13.50;;;7.10;1.00;;;;;;5109759;28;20174;-53
2021/10/11 06:46:49;;;;;;;19.23;13.27;;;7.20;1.00;;;;;;5109901;28;20190;-54
2021/10/11 06:49:15;;;;;;;18.33;13.63;;;7.20;1.00;;;;;;5106201;28;20648;-54
2021/10/11 06:51:40;;;;;;;17.83;13.07;;;7.30;1.00;;;;;;5108888;27;20472;-54
2021/10/11 06:54:06;;;;;;;15.87;12.30;;;7.30;1.00;;;;;;5109494;28;20190;-55
2021/10/11 06:56:31;;;;;;;16.97;13.37;;;7.30;1.00;;;;;;5111192;28;20273;-54
2021/10/11 06:58:57;;;;;;;19.40;15.23;;;7.40;1.00;;;;;;5103180;28;20205;-53
2021/10/11 07:01:22;;;;;;;19.20;14.40;;;7.30;1.00;;;;;;5108720;28;20178;-54
2021/10/11 07:03:48;;;;;;;17.77;13.87;;;7.40;1.00;;;;;;5109669;28;20189;-53
2021/10/11 07:06:21;;;;;;;18.37;13.43;;;7.30;1.00;;;;;;5108087;28;20190;-54
2021/10/11 07:08:47;;;;;;;19.77;15.13;;;7.40;1.00;;;;;;5107065;28;20560;-53
2021/10/11 07:11:12;;;;;;;19.50;13.90;;;7.40;1.00;;;;;;5106696;28;20596;-55
2021/10/11 07:13:38;;;;;;;18.43;13.90;;;7.40;1.00;;;;;;5105451;28;20187;-53
2021/10/11 07:16:04;;;;;;;18.10;13.37;;;7.40;1.00;;;;;;5091783;28;20187;-55
2021/10/11 07:18:33;;;;;;;18.20;13.00;;;7.40;1.00;;;;;;5107288;28;20254;-53
2021/10/11 07:20:58;;;;;;;16.70;13.07;;;7.50;1.00;;;;;;5107087;28;20559;-55
2021/10/11 07:23:24;;;;;;;18.77;13.00;;;7.50;1.00;;;;;;5108334;28;21084;-55
2021/10/11 07:25:50;;;;;;;18.63;13.33;;;7.70;1.00;;;;;;5102867;28;20965;-55
2021/10/11 07:28:15;;;;;;;18.07;13.63;;;7.80;1.00;;;;;;5105655;27;20175;-55
2021/10/11 07:30:41;;;;;;;20.43;14.37;;;8.00;1.00;;;;;;5103663;28;20198;-57
2021/10/11 07:33:07;;;;;;;19.30;14.20;;;8.20;1.00;;;;;;5107069;28;20190;-53
2021/10/11 07:35:34;;;;;;;19.03;13.57;;;8.50;1.00;;;;;;5105437;28;20195;-52
2021/10/11 07:38:00;;;;;;;16.47;12.73;;;8.80;1.00;;;;;;5102907;28;20444;-55
2021/10/11 07:40:26;;;;;;;20.20;13.47;;;9.20;1.00;;;;;;5107870;28;21047;-53
2021/10/11 07:42:52;;;;;;;18.70;14.97;;;9.80;1.00;;;;;;5103154;28;20476;-54
2021/10/11 07:45:18;;;;;;;15.03;12.43;;;9.60;1.00;;;;;;5110554;28;20435;-54
2021/10/11 07:47:44;;;;;;;19.77;14.23;;;9.80;1.00;;;;;;5103983;28;20190;-56
2021/10/11 07:50:10;;;;;;;16.43;13.47;;;9.80;1.00;;;;;;5106569;28;20451;-53
2021/10/11 07:52:36;;;;;;;16.67;13.30;;;9.80;1.00;;;;;;5108361;28;20521;-55
2021/10/11 07:55:02;;;;;;;18.53;14.10;;;9.70;1.00;;;;;;5107270;28;20453;-55
2021/10/11 07:57:32;;;;;;;22.10;15.47;;;9.60;1.00;;;;;;5107940;28;20196;-56
2021/10/11 07:59:58;;;;;;;23.27;14.53;;;9.70;1.00;;;;;;5105278;28;20954;-54
2021/10/11 08:02:23;;;;;;;16.80;13.53;;;9.60;1.00;;;;;;5107137;28;20414;-53
2021/10/11 08:04:49;;;;;;;27.60;15.53;;;9.70;1.00;;;;;;5109832;28;20170;-56
2021/10/11 08:07:15;;;;;;;17.90;13.30;;;9.80;1.00;;;;;;5105882;28;20187;-54
2021/10/11 08:09:40;;;;;;;19.33;14.33;;;10.00;1.00;;;;;;5107007;28;20247;-55
2021/10/11 08:12:08;;;;;;;18.90;13.83;;;10.10;1.00;;;;;;5110719;28;20721;-54
2021/10/11 08:14:34;;;;;;;17.67;13.67;;;10.30;1.00;;;;;;5117741;27;20775;-55
2021/10/11 08:17:00;;;;;;;21.20;13.90;;;9.20;1.00;;;;;;5108251;28;20935;-55
2021/10/11 08:19:25;;;;;;;17.47;13.13;;;10.50;1.00;;;;;;5108060;28;20582;-54
2021/10/11 08:21:51;;;;;;;19.70;13.43;;;10.50;1.00;;;;;;5108724;28;20224;-54
2021/10/11 08:24:16;;;;;;;35.60;15.93;;;10.70;1.00;;;;;;5107897;28;20206;-54
2021/10/11 08:26:42;;;;;;;22.60;14.43;;;10.80;1.00;;;;;;5109207;28;20182;-54
2021/10/11 08:29:08;;;;;;;15.80;14.00;;;10.80;1.00;;;;;;5097563;28;20179;-54
2021/10/11 08:31:33;;;;;;;17.07;14.30;;;10.80;1.00;;;;;;5105852;28;20569;-55
2021/10/11 08:33:59;;;;;;;17.57;13.90;;;10.80;1.00;;;;;;5104957;27;20186;-56
2021/10/11 08:36:25;;;;;;;26.43;15.83;;;10.80;1.00;;;;;;5107602;28;20219;-57
2021/10/11 08:38:50;;;;;;;37.97;17.07;;;11.10;1.00;;;;;;5106851;28;20442;-56
2021/10/11 08:41:16;;;;;;;25.73;14.73;;;11.30;1.00;;;;;;5105787;28;20187;-53
2021/10/11 08:43:41;;;;;;;19.00;13.17;;;11.60;1.00;;;;;;5107735;28;20181;-56
2021/10/11 08:46:07;;;;;;;21.43;14.20;;;11.90;1.00;;;;;;5106288;28;20175;-55
2021/10/11 08:48:34;;;;;;;17.97;14.07;;;12.30;1.00;;;;;;5103878;28;20175;-53
2021/10/11 08:51:01;;;;;;;17.93;13.03;;;12.60;1.00;;;;;;5109472;28;20188;-54
2021/10/11 08:53:27;;;;;;;18.43;14.10;;;12.90;1.00;;;;;;5109603;28;20470;-55
2021/10/11 08:55:53;;;;;;;18.80;13.83;;;12.80;1.00;;;;;;5110620;28;20501;-53
2021/10/11 08:58:19;;;;;;;19.93;14.40;;;12.90;1.00;;;;;;5108958;27;20458;-53
2021/10/11 09:00:44;;;;;;;19.60;14.60;;;12.90;1.00;;;;;;5110184;28;20207;-54
2021/10/11 09:03:16;;;;;;;17.43;13.60;;;13.00;1.00;;;;;;5102817;28;20263;-54
2021/10/11 09:05:42;;;;;;;23.53;13.80;;;13.20;1.00;;;;;;5110030;28;20256;-56
2021/10/11 09:08:13;;;;;;;22.70;13.90;;;13.40;1.00;;;;;;5109987;28;20441;-54
2021/10/11 09:11:17;;;;;;;17.37;13.50;;;13.60;1.00;;;;;;5109267;28;20229;-53
2021/10/11 09:13:53;;;;;;;18.23;12.77;;;14.00;1.00;;;;;;5104158;28;20450;-54
2021/10/11 09:17:03;;;;;;;16.97;12.63;;;14.30;1.00;;;;;;5109570;28;20510;-55
2021/10/11 09:19:29;;;;;;;17.90;14.90;;;14.30;1.00;;;;;;5098185;28;21030;-53
2021/10/11 09:21:54;;;;;;;15.80;14.13;;;14.50;1.00;;;;;;5108587;28;20453;-54
2021/10/11 09:24:21;;;;;;;21.53;14.93;;;14.60;1.00;;;;;;5108617;28;20428;-54
2021/10/11 09:26:49;;;;;;;18.10;14.43;;;14.60;1.00;;;;;;5109694;28;20720;-54
2021/10/11 09:29:26;;;;;;;18.00;13.80;;;14.60;1.00;;;;;;5109960;28;20708;-53
2021/10/11 09:31:52;;;;;;;19.63;14.90;;;14.50;1.00;;;;;;5107762;28;20451;-54
2021/10/11 09:34:19;;;;;;;18.07;14.20;;;14.40;1.00;;;;;;5109862;28;20452;-53
2021/10/11 09:37:05;;;;;;;18.87;15.00;;;14.30;1.00;;;;;;5103514;28;20205;-54
2021/10/11 09:39:35;;;;;;;18.77;14.73;;;14.00;1.00;;;;;;5108061;28;21013;-54
2021/10/11 09:42:03;;;;;;;20.87;15.03;;;13.80;1.00;;;;;;5110055;28;20428;-52
2021/10/11 09:44:28;;;;;;;17.80;15.30;;;13.70;1.00;;;;;;5110106;28;20408;-53
2021/10/11 09:47:03;;;;;;;19.73;15.30;;;13.80;1.00;;;;;;5110160;28;20486;-54
2021/10/11 09:49:29;;;;;;;23.07;16.33;;;13.90;1.00;;;;;;5108342;28;20572;-54
2021/10/11 09:51:56;;;;;;;21.90;15.27;;;14.20;1.00;;;;;;5105161;28;20482;-55
2021/10/11 09:54:23;;;;;;;23.33;16.80;;;14.40;1.00;;;;;;5108278;28;20430;-54
2021/10/11 09:56:48;;;;;;;23.03;15.93;;;14.60;1.00;;;;;;5110677;28;20767;-53
2021/10/11 09:59:16;;;;;;;21.60;15.07;;;14.50;1.00;;;;;;5094234;28;20488;-53
2021/10/11 10:01:43;;;;;;;18.90;16.37;;;14.50;1.00;;;;;;5112466;28;20271;-53
2021/10/11 10:04:13;;;;;;;21.10;16.60;;;14.60;1.00;;;;;;5086975;28;21009;-53
2021/10/11 10:06:40;;;;;;;26.30;16.63;;;14.50;1.00;;;;;;5089459;28;20442;-54
2021/10/11 10:09:09;;;;;;;23.23;17.07;;;14.30;1.00;;;;;;5110143;28;20447;-53
2021/10/11 10:11:35;;;;;;;24.60;18.10;;;14.20;1.00;;;;;;5108151;28;20539;-53
2021/10/11 10:14:01;;;;;;;22.67;17.40;;;14.30;1.00;;;;;;5109075;28;20971;-54
2021/10/11 10:16:29;;;;;;;22.70;18.67;;;14.40;1.00;;;;;;5112940;28;20461;-56
2021/10/11 10:18:55;;;;;;;25.33;17.47;;;14.40;1.00;;;;;;5109835;28;20896;-54
2021/10/11 10:21:32;;;;;;;25.17;18.37;;;14.50;1.00;;;;;;5109638;27;20428;-53
2021/10/11 10:23:58;;;;;;;24.50;18.67;;;14.70;1.00;;;;;;5096021;28;20439;-53
2021/10/11 10:26:36;;;;;;;24.57;19.03;;;14.70;1.00;;;;;;5106679;28;20407;-53
2021/10/11 10:29:12;;;;;;;26.10;19.27;;;14.80;1.00;;;;;;5106418;28;20258;-53
2021/10/11 10:31:38;;;;;;;24.00;20.27;;;14.80;1.00;;;;;;5113201;27;20965;-55
2021/10/11 10:34:17;;;;;;;27.23;21.07;;;15.00;1.00;;;;;;5113654;28;20433;-54
2021/10/11 10:36:44;;;;;;;28.37;19.90;;;15.10;1.00;;;;;;5111128;28;20181;-54
2021/10/11 10:39:12;;;;;;;32.20;21.77;;;15.20;1.00;;;;;;5113274;28;20436;-53
2021/10/11 10:41:42;;;;;;;30.63;22.10;;;15.30;1.00;;;;;;5113832;28;20528;-54
2021/10/11 10:44:11;;;;;;;25.97;19.80;;;15.50;1.00;;;;;;5112420;28;20434;-55
2021/10/11 10:46:47;;;;;;;26.33;21.93;;;15.60;1.00;;;;;;5109859;28;20485;-55
2021/10/11 10:49:13;;;;;;;29.70;21.37;;;15.70;1.00;;;;;;5113484;28;20434;-55
2021/10/11 10:51:42;;;;;;;29.03;19.80;;;15.80;1.00;;;;;;5113360;28;20455;-53
2021/10/11 10:54:08;;;;;;;32.37;21.70;;;15.60;1.00;;;;;;5113265;28;20178;-55
2021/10/11 10:56:33;;;;;;;29.17;21.00;;;15.50;1.00;;;;;;5113736;28;20446;-53
2021/10/11 10:59:03;;;;;;;26.27;20.90;;;15.30;1.00;;;;;;5113243;28;20185;-54
2021/10/11 11:01:29;;;;;;;29.70;21.00;;;15.00;1.00;;;;;;5113164;28;20180;-55
2021/10/11 11:03:54;;;;;;;27.47;21.90;;;15.00;1.00;;;;;;5112366;28;20429;-54
2021/10/11 11:06:30;;;;;;;30.13;21.77;;;15.00;1.00;;;;;;5113382;28;20332;-56
2021/10/11 11:09:00;;;;;;;29.07;21.30;;;14.90;1.00;;;;;;5113125;28;20185;-54
2021/10/11 11:11:30;;;;;;;29.40;21.37;;;15.00;1.00;;;;;;5108152;28;20485;-52
2021/10/11 11:13:57;;;;;;;30.63;20.80;;;14.80;1.00;;;;;;5113311;28;20452;-54
2021/10/11 11:16:28;;;;;;;26.23;20.87;;;14.80;1.00;;;;;;5113025;28;20519;-54
2021/10/11 11:18:55;;;;;;;28.00;21.70;;;14.60;1.00;;;;;;5113002;28;20828;-53
2021/10/11 11:21:21;;;;;;;28.77;20.00;;;14.60;1.00;;;;;;5112641;28;20441;-53
2021/10/11 11:23:46;;;;;;;31.03;21.73;;;14.30;1.00;;;;;;5112923;28;20442;-55
2021/10/11 11:26:12;;;;;;;37.63;22.20;;;14.40;1.00;;;;;;5112718;28;20181;-57
2021/10/11 11:28:37;;;;;;;31.13;23.27;;;14.20;1.00;;;;;;5109281;27;20202;-56
2021/10/11 11:31:06;;;;;;;31.17;20.97;;;14.10;1.00;;;;;;5112466;28;20238;-55
2021/10/11 11:33:32;;;;;;;28.47;23.07;;;14.10;1.00;;;;;;5113402;27;20185;-55
2021/10/11 11:36:00;;;;;;;31.87;22.57;;;14.10;1.00;;;;;;5112028;28;20433;-55
2021/10/11 11:38:27;;;;;;;28.50;21.87;;;13.90;1.00;;;;;;5108543;27;20435;-55
2021/10/11 11:41:02;;;;;;;30.43;22.70;;;13.80;1.00;;;;;;5112493;28;20791;-53
2021/10/11 11:43:33;;;;;;;27.63;22.33;;;13.70;1.00;;;;;;5112497;28;20989;-53
2021/10/11 11:45:59;;;;;;;32.17;22.27;;;13.70;1.00;;;;;;5112301;28;20488;-55
2021/10/11 11:48:30;;;;;;;29.10;22.97;;;13.80;1.00;;;;;;5112094;28;20437;-53
2021/10/11 11:50:59;;;;;;;30.53;21.30;;;13.70;1.00;;;;;;5112183;28;20467;-53
2021/10/11 11:53:26;;;;;;;35.53;21.60;;;13.60;1.00;;;;;;5112219;28;20527;-53
2021/10/11 11:55:54;;;;;;;32.23;23.37;;;13.60;1.00;;;;;;5112106;28;20938;-53
2021/10/11 11:58:23;;;;;;;31.63;24.50;;;13.50;1.00;;;;;;5111985;28;20957;-56
2021/10/11 12:00:51;;;;;;;35.73;22.80;;;13.40;1.00;;;;;;5111820;28;20517;-54
2021/10/11 12:03:18;;;;;;;32.30;23.47;;;13.30;1.00;;;;;;5111310;28;20532;-54
2021/10/11 12:05:47;;;;;;;33.77;23.70;;;13.10;1.00;;;;;;5112305;28;20437;-54
2021/10/11 12:08:14;;;;;;;36.33;26.30;;;13.00;1.00;;;;;;5112242;28;20505;-53
2021/10/11 12:10:40;;;;;;;34.67;25.90;;;12.90;1.00;;;;;;5111717;28;20458;-53
2021/10/11 12:13:06;;;;;;;31.03;24.70;;;12.80;1.00;;;;;;5111735;28;20444;-54
2021/10/11 12:15:33;;;;;;;31.83;24.27;;;12.70;1.00;;;;;;5110651;28;20990;-53
2021/10/11 12:18:02;;;;;;;37.57;26.10;;;12.50;1.00;;;;;;5111494;28;20844;-57
2021/10/11 12:20:42;;;;;;;33.83;26.00;;;12.50;1.00;;;;;;5111403;28;20466;-54
2021/10/11 12:23:08;;;;;;;42.13;26.00;;;12.70;1.00;;;;;;5111539;28;21015;-55
2021/10/11 12:25:34;;;;;;;37.60;26.60;;;12.70;1.00;;;;;;5111589;28;20509;-53
2021/10/11 12:28:18;;;;;;;37.43;25.80;;;12.90;1.00;;;;;;5107556;28;21068;-54
2021/10/11 12:30:48;;;;;;;35.33;25.73;;;12.80;1.00;;;;;;5111296;28;20187;-54
2021/10/11 12:33:16;;;;;;;36.13;24.70;;;12.90;1.00;;;;;;5111695;28;20832;-55
2021/10/11 12:35:43;;;;;;;36.53;26.63;;;12.90;1.00;;;;;;5113134;27;20501;-54
2021/10/11 12:38:11;;;;;;;37.13;26.53;;;12.90;1.00;;;;;;5111288;28;20443;-55
2021/10/11 12:40:38;;;;;;;40.57;27.30;;;12.90;1.00;;;;;;5111338;28;20464;-54